Airfield :
LOGIN :

Register | Disclaimer

   EN    FR    IT 

 










Legend :    VFR   Marginal VFR   IFR   Intensive IFR   Very Intensive IFR
Visi :
Ceiling :
>= 8 km
>= 3000ft
5 to 8 km
1000 to 3000 ft
1500m to 5 km
500 to 1000 ft
800 to 1500m
200 to 500 ft
< 800m
< 200 ft
Symbols :   Thunderstorms  Fog  Heavy snow  Heavy precipitations  Wind > 20 kt
SIGMETs :     Misc.  Thunderstorms  Icing  Turbulence  Mountain Waves  Volcanic Ashes







- Airport Elevation : 1302 ft
- IATA code : GNB
- Download approach charts


LFLS - Grenoble / St. Geoirs

CURRENT METAR :
  • 162200Z AUTO 36012KT 340V070 9999 FEW011 SCT039 BKN090 02/M00 Q1021

EXPIRED METARs :
  • 162130Z AUTO 35013KT 9999 -RA FEW011 SCT032 BKN046 02/M00 Q1021
  • 162100Z AUTO 35014KT 330V050 9999 -RA BKN009 BKN013 BKN019 01/M00 Q1021
  • 162030Z AUTO 35008KT 330V040 9999 -SNRA BKN009 BKN018 BKN030 02/00 Q1020
  • 162000Z AUTO 36009KT 320V060 9999 BKN009 BKN017 BKN025 02/00 Q1020 TEMPO 4000 -RASN
  • 161930Z AUTO 35010KT 330V070 9999 BKN008 OVC028 02/01 Q1020 TEMPO 4000 -RASN

TAF TAF LFLS
Valid from the 16 at 15:00 until the 17 at 15:00 UTC


161400Z 1615/1715 35009KT 9999 BKN016
TEMPO 1615/1710 BKN009
PROB40
TEMPO 1615/1701 4000 -RASN
PROB30
TEMPO 1703/1710 4000 -SN
ATIS : +33 4 76 65 55 89
No reported NOTAMs for that airfield.
1 SIGMET reported for the Marseille FIR (LFMM) :
 
Severe turbulence
LFMM SIGMET 7 VALID 162000/162300 LFPW
LFMM MARSEILLE FIR/UIR SEV TURB FCST WI N4115 E00430 - N4200 E00430 - N4215 E00230 - N4330 E00245 - N4415 E00330 - N4415 E00515 - N4100 E00715 - N4115 E00430 SFC/FL050 STNR NC=



MET'MAP, your aeronautical weather chart ! - Copyright ORBIFLY December 2007 - Disclaimer

ORBIFLY MET'MAP TEAM :

Programming & Development : Alexandra Zaïnal
Concept & Development : Baudouin d'Aumeries
Co-Development & Prog : Marc-Olivier Méhu
Technical & hardware support : Manuel Goepfert

Contact : metmap@orbifly.com




SOURCES & CREDITS :

   NOAA